Time;durP1;ratioP1;P1;durP2;ratioP2;P2;SDS_P1;SDS_P2;PMS_P1;PMS_P2;Temp;Humidity;BMP_temperature;BMP_pressure;BME280_temperature;BME280_humidity;BME280_pressure;Samples;Min_cycle;Max_cycle;Signal;HPM_P1;HPM_P2
2022/01/31 00:00:14;;;;;;;;;5.60;5.60;;;;;4.38;73.55;99921.88;5017118;28;8862;-63
2022/01/31 00:02:41;;;;;;;;;1.00;1.00;;;;;4.38;73.74;99887.59;5016366;28;8856;-64
2022/01/31 00:05:09;;;;;;;;;3.20;3.20;;;;;4.38;73.46;99875.28;5015938;28;8857;-63
2022/01/31 00:07:38;;;;;;;;;3.80;3.00;;;;;4.40;73.53;99856.75;5016839;28;8866;-65
2022/01/31 00:10:08;;;;;;;;;4.00;3.60;;;;;4.40;73.68;99862.88;5020013;28;9506;-64
2022/01/31 00:12:45;;;;;;;;;3.60;3.60;;;;;4.42;73.97;99860.16;5035362;28;8832;-65
2022/01/31 00:15:13;;;;;;;;;3.00;3.00;;;;;4.41;73.60;99835.56;5034697;28;9501;-71
2022/01/31 00:17:41;;;;;;;;;2.20;2.20;;;;;4.42;73.57;99833.78;5035575;28;8848;-64
2022/01/31 00:20:08;;;;;;;;;3.00;3.00;;;;;4.41;73.63;99835.56;5035124;28;8966;-64
2022/01/31 00:22:36;;;;;;;;;3.00;2.60;;;;;4.39;73.47;99815.50;5035399;28;8844;-63
2022/01/31 00:25:03;;;;;;;;;2.20;2.20;;;;;4.37;73.64;99809.47;5036157;28;8850;-63
2022/01/31 00:27:32;;;;;;;;;1.00;1.00;;;;;4.37;73.71;99796.28;5036450;28;8850;-63
2022/01/31 00:29:59;;;;;;;;;3.60;3.00;;;;;4.38;73.60;99790.09;5036289;28;8864;-63
2022/01/31 00:32:29;;;;;;;;;3.40;3.40;;;;;4.41;73.25;99771.47;5036643;28;8858;-64
2022/01/31 00:34:57;;;;;;;;;0.40;0.40;;;;;4.42;73.39;99750.28;5036154;28;8871;-63
2022/01/31 00:37:25;;;;;;;;;2.20;1.80;;;;;4.46;73.04;99761.50;5035906;28;8858;-63
2022/01/31 00:39:52;;;;;;;;;3.00;1.00;;;;;4.48;72.75;99760.47;5031288;28;8854;-64
2022/01/31 00:42:20;;;;;;;;;1.40;1.40;;;;;4.49;72.58;99742.88;5016220;28;8869;-64
2022/01/31 00:44:52;;;;;;;;;1.00;0.80;;;;;4.50;72.77;99731.41;5015436;28;8827;-64
2022/01/31 00:47:23;;;;;;;;;0.40;0.40;;;;;4.51;72.44;99741.00;5016232;28;9503;-64
2022/01/31 00:49:53;;;;;;;;;1.00;1.00;;;;;4.55;72.79;99731.94;5016412;28;9526;-63
2022/01/31 00:52:21;;;;;;;;;4.00;4.00;;;;;4.56;72.80;99723.13;5015101;28;9007;-63
2022/01/31 00:54:49;;;;;;;;;1.80;1.80;;;;;4.54;72.26;99720.59;5015230;28;8847;-63
2022/01/31 00:57:17;;;;;;;;;3.00;3.00;;;;;4.57;72.38;99711.66;5016192;28;8853;-63
2022/01/31 00:59:45;;;;;;;;;0.00;0.00;;;;;4.58;71.76;99702.78;5016251;28;8850;-63
2022/01/31 01:02:12;;;;;;;;;3.00;1.00;;;;;4.58;71.87;99700.16;5016334;28;8874;-63
2022/01/31 01:04:40;;;;;;;;;3.00;2.60;;;;;4.58;72.13;99679.91;5016158;28;8851;-63
2022/01/31 01:07:08;;;;;;;;;3.00;3.00;;;;;4.58;72.11;99682.53;5016124;28;8857;-64
2022/01/31 01:09:37;;;;;;;;;2.20;1.00;;;;;4.59;72.07;99678.13;5017189;28;8853;-64
2022/01/31 01:12:05;;;;;;;;;1.40;1.40;;;;;4.61;72.21;99678.88;5034313;28;8824;-63
2022/01/31 01:14:33;;;;;;;;;0.20;0.20;;;;;4.62;72.19;99646.28;5033991;28;9524;-63
2022/01/31 01:17:00;;;;;;;;;0.60;0.00;;;;;4.62;72.24;99639.25;5034647;28;8848;-63
2022/01/31 01:19:28;;;;;;;;;0.00;0.00;;;;;4.64;72.12;99620.69;5035509;28;8836;-63
2022/01/31 01:21:56;;;;;;;;;1.00;1.00;;;;;4.66;72.29;99608.25;5035533;28;8847;-63
2022/01/31 01:24:24;;;;;;;;;3.00;3.00;;;;;4.66;72.07;99595.94;5036072;28;8820;-64
2022/01/31 01:26:51;;;;;;;;;3.00;1.00;;;;;4.66;72.20;99563.44;5034889;28;8843;-63
2022/01/31 01:29:20;;;;;;;;;1.00;1.00;;;;;4.66;71.98;99558.16;5033681;28;8857;-64
2022/01/31 01:31:49;;;;;;;;;1.00;1.00;;;;;4.66;72.17;99555.53;5034254;28;9498;-63
2022/01/31 01:34:17;;;;;;;;;0.60;0.60;;;;;4.66;71.77;99550.25;5033681;28;8836;-63
2022/01/31 01:36:46;;;;;;;;;3.00;3.00;;;;;4.66;71.88;99537.94;5034633;28;8841;-63
2022/01/31 01:39:13;;;;;;;;;1.00;1.00;;;;;4.67;72.15;99534.34;5034890;28;8966;-63
2022/01/31 01:41:43;;;;;;;;;0.00;0.00;;;;;4.67;72.67;99512.41;5017018;28;8822;-63
2022/01/31 01:44:11;;;;;;;;;1.00;1.00;;;;;4.65;72.08;99499.28;5015195;28;8843;-64
2022/01/31 01:46:40;;;;;;;;;1.00;1.00;;;;;4.65;72.39;99480.84;5015156;28;8870;-64
2022/01/31 01:49:07;;;;;;;;;3.00;1.00;;;;;4.65;72.27;99456.28;5015684;28;8838;-64
2022/01/31 01:51:35;;;;;;;;;5.20;4.40;;;;;4.64;72.11;99457.22;5014594;28;8838;-64
2022/01/31 01:54:03;;;;;;;;;0.80;0.80;;;;;4.59;71.84;99440.84;5015451;28;8860;-64
2022/01/31 01:56:31;;;;;;;;;3.00;0.60;;;;;4.57;72.23;99435.66;5015233;28;8834;-63
2022/01/31 01:59:04;;;;;;;;;1.60;1.40;;;;;4.55;72.76;99423.50;5015303;28;8881;-63
2022/01/31 02:01:31;;;;;;;;;1.00;0.60;;;;;4.55;72.17;99397.16;5013986;28;8971;-63
2022/01/31 02:03:59;;;;;;;;;1.00;1.00;;;;;4.54;72.52;99391.06;5013713;28;8873;-63
2022/01/31 02:06:27;;;;;;;;;2.60;2.60;;;;;4.56;72.68;99377.78;5013984;28;9536;-63
2022/01/31 02:08:55;;;;;;;;;3.00;2.60;;;;;4.55;72.46;99357.63;5015431;28;8846;-63
2022/01/31 02:11:23;;;;;;;;;4.00;3.00;;;;;4.55;72.32;99340.03;5029109;28;8852;-63
2022/01/31 02:13:51;;;;;;;;;3.00;3.00;;;;;4.56;72.34;99322.44;5034449;28;8847;-63
2022/01/31 02:16:19;;;;;;;;;0.40;0.40;;;;;4.57;72.23;99306.47;5034937;28;8859;-63
2022/01/31 02:18:49;;;;;;;;;1.00;1.00;;;;;4.58;72.46;99300.25;5034499;28;9529;-63
2022/01/31 02:21:17;;;;;;;;;3.00;1.00;;;;;4.59;72.27;99282.66;5035080;28;9530;-64
2022/01/31 02:23:45;;;;;;;;;1.00;0.00;;;;;4.60;71.97;99287.00;5034009;28;8856;-63
2022/01/31 02:26:13;;;;;;;;;1.40;1.40;;;;;4.61;72.32;99276.34;5033755;28;8860;-63
2022/01/31 02:28:40;;;;;;;;;6.60;0.00;;;;;4.62;72.06;99272.78;5037782;28;8889;-62
2022/01/31 02:31:08;;;;;;;;;0.60;0.60;;;;;4.65;71.92;99266.44;5039407;28;8840;-63
2022/01/31 02:33:36;;;;;;;;;0.60;0.60;;;;;4.64;71.96;99257.69;5038287;28;8848;-63
2022/01/31 02:36:03;;;;;;;;;1.40;0.80;;;;;4.64;72.54;99246.31;5038487;28;8848;-63
2022/01/31 02:38:31;;;;;;;;;1.00;0.80;;;;;4.64;72.13;99247.13;5038374;28;8871;-63
2022/01/31 02:40:59;;;;;;;;;0.80;0.80;;;;;4.66;72.31;99236.50;5025169;28;8831;-66
2022/01/31 02:43:27;;;;;;;;;3.40;3.20;;;;;4.59;72.53;99235.22;5019271;28;8834;-63
2022/01/31 02:45:54;;;;;;;;;1.00;1.00;;;;;4.40;72.95;99237.41;5018730;28;8858;-64
2022/01/31 02:48:25;;;;;;;;;2.20;2.20;;;;;4.12;73.34;99219.06;5018750;28;8861;-63
2022/01/31 02:50:53;;;;;;;;;6.00;6.00;;;;;3.92;74.34;99223.00;5019046;28;9012;-62
2022/01/31 02:53:25;;;;;;;;;1.80;1.80;;;;;3.80;74.84;99215.88;5018020;28;9546;-62
2022/01/31 02:55:53;;;;;;;;;0.20;0.20;;;;;3.72;75.17;99214.66;5037082;28;8881;-61
2022/01/31 02:58:21;;;;;;;;;1.40;0.80;;;;;3.66;75.26;99194.00;5038862;28;9510;-63
2022/01/31 03:00:49;;;;;;;;;1.80;1.00;;;;;3.60;76.16;99186.50;5038728;28;9614;-62
2022/01/31 03:03:16;;;;;;;;;1.00;1.00;;;;;3.52;76.53;99186.16;5038722;28;8832;-62
2022/01/31 03:05:45;;;;;;;;;1.00;1.00;;;;;3.44;76.49;99188.41;5037659;28;8849;-65
2022/01/31 03:08:12;;;;;;;;;6.00;3.80;;;;;3.40;76.84;99175.56;5038329;28;8844;-62
2022/01/31 03:10:40;;;;;;;;;0.80;0.80;;;;;3.36;77.09;99169.63;5037620;28;8847;-62
2022/01/31 03:13:07;;;;;;;;;3.00;3.00;;;;;3.32;77.58;99147.09;5038058;28;8890;-62
2022/01/31 03:15:35;;;;;;;;;0.80;0.80;;;;;3.30;77.93;99134.97;5038400;28;8855;-67
2022/01/31 03:18:05;;;;;;;;;0.80;0.80;;;;;3.26;78.02;99133.50;5037003;28;8864;-67
2022/01/31 03:20:32;;;;;;;;;1.00;1.00;;;;;3.19;78.28;99130.38;5037152;28;8856;-63
2022/01/31 03:23:00;;;;;;;;;1.80;1.80;;;;;3.10;78.54;99116.97;5036943;28;8848;-63
2022/01/31 03:25:28;;;;;;;;;0.00;0.00;;;;;2.99;79.56;99112.41;5037781;28;8837;-63
2022/01/31 03:27:56;;;;;;;;;1.00;1.00;;;;;2.90;79.39;99099.84;5037117;28;8975;-62
2022/01/31 03:30:24;;;;;;;;;3.00;1.80;;;;;2.85;80.27;99082.63;5037114;28;9600;-62
2022/01/31 03:32:51;;;;;;;;;1.00;1.00;;;;;2.78;80.81;99087.44;5037563;28;8840;-62
2022/01/31 03:35:19;;;;;;;;;0.00;0.00;;;;;2.72;81.28;99084.34;5037379;28;8852;-63
2022/01/31 03:37:47;;;;;;;;;1.00;1.00;;;;;2.64;81.13;99069.03;5037226;28;8845;-62
2022/01/31 03:40:15;;;;;;;;;1.00;1.00;;;;;2.60;81.09;99074.59;5027784;28;8834;-62
2022/01/31 03:42:43;;;;;;;;;1.80;1.80;;;;;2.56;81.07;99057.34;5017479;28;8834;-63
2022/01/31 03:45:10;;;;;;;;;3.40;3.20;;;;;2.46;81.11;99051.78;5017547;28;8838;-61
2022/01/31 03:47:44;;;;;;;;;1.80;1.40;;;;;2.42;81.29;99041.56;5017021;28;8965;-64
2022/01/31 03:50:12;;;;;;;;;4.00;3.00;;;;;2.39;81.97;99036.50;5017051;28;8919;-62
2022/01/31 03:52:40;;;;;;;;;1.00;1.00;;;;;2.34;82.24;99039.41;5017893;28;8850;-62
2022/01/31 03:55:07;;;;;;;;;0.20;0.20;;;;;2.33;82.15;99042.09;5017558;28;8847;-62
2022/01/31 03:57:35;;;;;;;;;1.40;1.40;;;;;2.31;81.82;99042.22;5017617;28;8861;-63
2022/01/31 04:00:04;;;;;;;;;2.60;1.00;;;;;2.29;82.29;99033.56;5015992;28;8881;-63
2022/01/31 04:02:32;;;;;;;;;1.00;0.60;;;;;2.30;82.35;99030.03;5016073;28;8834;-62
2022/01/31 04:05:00;;;;;;;;;1.40;1.40;;;;;2.32;81.86;99019.41;5016678;28;8842;-62
2022/01/31 04:07:27;;;;;;;;;1.00;1.00;;;;;2.33;81.75;99011.44;5016595;28;8862;-63
2022/01/31 04:09:55;;;;;;;;;0.00;0.00;;;;;2.33;81.91;99003.56;5023520;28;8833;-62
2022/01/31 04:12:23;;;;;;;;;1.00;1.00;;;;;2.36;82.39;98998.13;5036462;28;8859;-62
2022/01/31 04:14:51;;;;;;;;;1.00;0.20;;;;;2.39;82.02;98995.31;5036004;28;8840;-61
2022/01/31 04:17:20;;;;;;;;;0.80;0.40;;;;;2.44;82.05;98997.66;5036956;28;8848;-62
2022/01/31 04:19:48;;;;;;;;;0.00;0.00;;;;;2.50;82.16;98997.28;5036696;28;8833;-62
2022/01/31 04:22:18;;;;;;;;;0.20;0.20;;;;;2.54;82.09;98986.50;5036430;28;8954;-62
2022/01/31 04:24:48;;;;;;;;;0.00;0.00;;;;;2.58;82.23;98966.94;5036363;28;8837;-62
2022/01/31 04:27:19;;;;;;;;;1.00;1.00;;;;;2.64;81.98;98963.13;5035485;28;8840;-62
2022/01/31 04:29:48;;;;;;;;;0.00;0.00;;;;;2.68;82.18;98957.56;5034887;28;8922;-63
2022/01/31 04:32:15;;;;;;;;;0.20;0.20;;;;;2.74;81.73;98957.16;5034868;28;8887;-62
2022/01/31 04:34:43;;;;;;;;;0.80;0.80;;;;;2.81;82.24;98962.88;5034923;28;8832;-62
2022/01/31 04:37:11;;;;;;;;;0.00;0.00;;;;;2.88;82.34;98959.75;5035574;28;9501;-62
2022/01/31 04:39:39;;;;;;;;;0.00;0.00;;;;;2.93;81.77;98962.06;5028885;28;8847;-62
2022/01/31 04:42:07;;;;;;;;;0.00;0.00;;;;;2.98;81.90;98963.47;5015498;28;8843;-63
2022/01/31 04:44:35;;;;;;;;;0.60;0.00;;;;;3.04;81.96;98957.78;5015949;28;8842;-63
2022/01/31 04:47:03;;;;;;;;;1.40;1.40;;;;;3.07;81.84;98951.50;5016688;28;8854;-63
2022/01/31 04:49:33;;;;;;;;;1.00;0.80;;;;;3.10;82.03;98957.41;5015933;28;8839;-63
2022/01/31 04:52:01;;;;;;;;;3.00;1.00;;;;;3.15;82.12;98930.81;5016633;28;8850;-63
2022/01/31 04:54:28;;;;;;;;;1.00;1.00;;;;;3.20;82.03;98936.63;5016322;28;8869;-66
2022/01/31 04:56:56;;;;;;;;;1.80;1.00;;;;;3.25;82.49;98927.47;5016393;28;8839;-62
2022/01/31 04:59:24;;;;;;;;;1.00;0.00;;;;;3.32;81.97;98938.44;5014656;28;8902;-62
2022/01/31 05:01:53;;;;;;;;;1.00;1.00;;;;;3.41;82.27;98925.50;5015706;28;8872;-63
2022/01/31 05:04:20;;;;;;;;;0.40;0.40;;;;;3.52;82.53;98932.66;5016015;28;8847;-63
2022/01/31 05:06:49;;;;;;;;;2.60;1.40;;;;;3.59;82.61;98913.75;5015276;28;8842;-63
2022/01/31 05:09:16;;;;;;;;;1.00;1.00;;;;;3.67;82.71;98921.97;5018747;28;8955;-63
2022/01/31 05:11:45;;;;;;;;;2.20;2.20;;;;;3.73;81.71;98906.59;5036108;28;8970;-64
2022/01/31 05:14:15;;;;;;;;;2.20;2.20;;;;;3.82;81.88;98900.69;5035467;28;8851;-63
2022/01/31 05:16:43;;;;;;;;;1.00;0.00;;;;;3.90;81.82;98897.53;5035998;28;8849;-62
2022/01/31 05:19:11;;;;;;;;;2.60;2.20;;;;;3.96;82.29;98918.19;5035805;28;8848;-63
2022/01/31 05:21:39;;;;;;;;;2.40;2.40;;;;;4.04;81.90;98907.94;5035588;28;8852;-63
2022/01/31 05:24:07;;;;;;;;;0.80;0.80;;;;;4.12;82.07;98897.72;5035131;28;8881;-65
2022/01/31 05:26:34;;;;;;;;;5.00;4.40;;;;;4.21;81.57;98891.78;5035403;28;8848;-62
2022/01/31 05:29:02;;;;;;;;;4.00;3.00;;;;;4.29;81.27;98894.72;5034065;28;9579;-63
2022/01/31 05:31:30;;;;;;;;;3.00;1.40;;;;;4.36;80.92;98883.66;5033301;28;8863;-62
2022/01/31 05:33:57;;;;;;;;;3.20;3.20;;;;;4.43;81.34;98876.16;5035131;28;8849;-63
2022/01/31 05:36:26;;;;;;;;;3.00;1.00;;;;;4.51;80.86;98877.28;5034358;28;8837;-63
2022/01/31 05:38:54;;;;;;;;;1.20;0.80;;;;;4.60;81.04;98870.47;5034740;28;8869;-63
2022/01/31 05:41:22;;;;;;;;;4.80;3.60;;;;;4.65;80.85;98866.56;5015242;28;8857;-63
2022/01/31 05:43:49;;;;;;;;;3.60;3.60;;;;;4.72;80.85;98867.78;5014468;28;8877;-63
2022/01/31 05:46:18;;;;;;;;;3.80;3.60;;;;;4.81;80.63;98861.00;5015001;28;8850;-63
2022/01/31 05:48:46;;;;;;;;;6.80;5.60;;;;;4.89;80.80;98840.19;5017093;28;8840;-62
2022/01/31 05:51:14;;;;;;;;;7.80;6.80;;;;;4.95;80.81;98845.84;5033817;28;9474;-64
2022/01/31 05:53:41;;;;;;;;;4.00;4.00;;;;;5.01;80.66;98847.19;5033702;28;8882;-64
2022/01/31 05:56:09;;;;;;;;;2.60;2.20;;;;;5.07;80.01;98846.72;5034323;28;8836;-63
2022/01/31 05:58:37;;;;;;;;;4.80;4.00;;;;;5.12;80.27;98856.00;5034335;28;9497;-63
2022/01/31 06:01:06;;;;;;;;;7.00;5.40;;;;;5.16;80.21;98840.78;5034166;28;8841;-63
2022/01/31 06:03:33;;;;;;;;;6.00;5.60;;;;;5.18;79.93;98838.84;5033961;28;8828;-63
2022/01/31 06:06:02;;;;;;;;;4.00;3.00;;;;;5.18;80.23;98838.84;5034553;28;8860;-64
2022/01/31 06:08:29;;;;;;;;;2.80;1.40;;;;;5.20;80.22;98831.66;5034780;28;8848;-63
2022/01/31 06:10:57;;;;;;;;;4.40;4.40;;;;;5.21;80.11;98828.91;5034257;28;8866;-63
2022/01/31 06:13:28;;;;;;;;;3.40;3.00;;;;;5.26;80.51;98825.91;5033898;28;9576;-64
2022/01/31 06:15:56;;;;;;;;;3.40;3.00;;;;;5.29;80.23;98823.03;5032803;28;8888;-63
2022/01/31 06:18:24;;;;;;;;;4.00;3.20;;;;;5.31;80.44;98819.31;5031580;28;9584;-63
2022/01/31 06:20:51;;;;;;;;;4.60;4.60;;;;;5.34;79.91;98827.03;5030744;28;8824;-63
2022/01/31 06:23:19;;;;;;;;;3.00;3.00;;;;;5.37;80.40;98815.38;5032376;28;8852;-63
2022/01/31 06:25:48;;;;;;;;;3.60;3.60;;;;;5.38;80.33;98820.53;5032209;28;9684;-63
2022/01/31 06:28:16;;;;;;;;;5.20;5.20;;;;;5.42;80.01;98807.94;5032691;28;8848;-63
2022/01/31 06:30:47;;;;;;;;;2.60;2.60;;;;;5.40;80.44;98804.59;5033607;28;8872;-63
2022/01/31 06:33:16;;;;;;;;;6.20;4.40;;;;;5.41;80.52;98808.91;5032610;28;8861;-63
2022/01/31 06:35:43;;;;;;;;;3.20;3.20;;;;;5.39;80.48;98787.09;5030962;28;8852;-62
2022/01/31 06:38:11;;;;;;;;;1.00;1.00;;;;;5.39;80.25;98793.19;5030743;28;8859;-65
2022/01/31 06:40:39;;;;;;;;;3.00;3.00;;;;;5.39;81.03;98798.47;5031343;28;8837;-63
2022/01/31 06:43:06;;;;;;;;;5.00;4.20;;;;;5.36;80.40;98793.44;5030749;28;8855;-64
2022/01/31 06:45:34;;;;;;;;;0.80;0.80;;;;;5.30;80.81;98785.97;5031137;28;9297;-64
2022/01/31 06:48:05;;;;;;;;;3.00;2.60;;;;;5.27;81.03;98788.00;5031229;28;8945;-64
2022/01/31 06:50:32;;;;;;;;;3.80;3.80;;;;;5.27;81.40;98793.28;5030697;28;8833;-63
2022/01/31 06:53:01;;;;;;;;;2.20;2.20;;;;;5.27;80.89;98793.28;5029615;28;8921;-63
2022/01/31 06:55:30;;;;;;;;;5.20;5.20;;;;;5.27;81.14;98793.28;5030792;28;8852;-63
2022/01/31 06:57:57;;;;;;;;;3.40;3.20;;;;;5.28;80.60;98792.31;5030081;28;8861;-64
2022/01/31 07:00:25;;;;;;;;;6.00;4.00;;;;;5.31;80.89;98786.84;5029838;28;8891;-64
2022/01/31 07:02:54;;;;;;;;;6.00;5.60;;;;;5.30;81.16;98782.50;5030594;28;8855;-64
2022/01/31 07:05:22;;;;;;;;;6.60;6.20;;;;;5.25;81.03;98776.75;5031444;28;8845;-64
2022/01/31 07:07:50;;;;;;;;;5.60;4.40;;;;;5.21;81.09;98783.19;5031005;28;8863;-64
2022/01/31 07:10:18;;;;;;;;;1.00;1.00;;;;;5.18;81.25;98780.81;5030573;28;8961;-64
2022/01/31 07:12:52;;;;;;;;;3.60;3.00;;;;;5.16;81.44;98769.53;5031074;28;9540;-64
2022/01/31 07:15:20;;;;;;;;;3.60;3.60;;;;;5.13;81.64;98773.25;5034665;28;8882;-64
2022/01/31 07:17:47;;;;;;;;;3.00;3.00;;;;;5.12;81.88;98763.66;5034331;28;8836;-64
2022/01/31 07:20:22;;;;;;;;;3.20;3.20;;;;;5.12;81.61;98773.34;5033077;28;9510;-65
2022/01/31 07:22:55;;;;;;;;;3.00;2.20;;;;;5.11;81.29;98767.25;5032420;28;8853;-66
2022/01/31 07:25:34;;;;;;;;;2.20;2.20;;;;;5.09;81.81;98757.78;5032424;28;8844;-65
2022/01/31 07:28:02;;;;;;;;;3.00;3.00;;;;;5.07;81.93;98764.94;5033029;28;8855;-65
2022/01/31 07:30:30;;;;;;;;;3.00;2.20;;;;;5.05;81.94;98764.22;5032465;28;8852;-65
2022/01/31 07:32:58;;;;;;;;;3.20;3.00;;;;;5.00;81.95;98761.09;5031390;28;8868;-65
2022/01/31 07:35:26;;;;;;;;;4.00;4.00;;;;;4.96;82.24;98772.84;5032322;28;8833;-66
2022/01/31 07:37:53;;;;;;;;;1.80;1.00;;;;;4.92;82.33;98781.94;5032834;28;8856;-66
2022/01/31 07:40:21;;;;;;;;;0.40;0.40;;;;;4.85;82.17;98780.69;5032530;28;8860;-66
2022/01/31 07:42:49;;;;;;;;;3.00;3.00;;;;;4.77;82.38;98780.44;5032619;28;8848;-66
2022/01/31 07:45:17;;;;;;;;;2.20;0.40;;;;;4.71;82.92;98787.03;5033572;28;8863;-66
2022/01/31 07:47:44;;;;;;;;;0.60;0.60;;;;;4.64;82.97;98782.34;5032587;28;8856;-66
2022/01/31 07:50:13;;;;;;;;;1.00;1.00;;;;;4.59;82.98;98790.59;5034147;28;8836;-66
2022/01/31 07:52:41;;;;;;;;;3.00;2.20;;;;;4.54;83.43;98784.81;5033052;28;8825;-66
2022/01/31 07:55:08;;;;;;;;;1.00;1.00;;;;;4.52;83.64;98789.34;5033166;28;8848;-66
2022/01/31 07:57:38;;;;;;;;;1.00;1.00;;;;;4.46;83.45;98797.69;5032217;28;8836;-66
2022/01/31 08:00:06;;;;;;;;;0.00;0.00;;;;;4.39;83.85;98791.19;5032543;28;8876;-66
2022/01/31 08:02:34;;;;;;;;;0.00;0.00;;;;;4.34;83.96;98788.03;5031390;28;9207;-66
2022/01/31 08:05:07;;;;;;;;;0.00;0.00;;;;;4.30;83.93;98785.75;5029872;28;8867;-66
2022/01/31 08:07:34;;;;;;;;;0.00;0.00;;;;;4.26;84.23;98800.94;5031909;28;8867;-66
2022/01/31 08:10:02;;;;;;;;;1.00;1.00;;;;;4.25;84.21;98772.09;5032206;28;8825;-66
2022/01/31 08:12:32;;;;;;;;;5.00;1.00;;;;;4.25;84.15;98767.66;5031438;28;8844;-66
2022/01/31 08:15:03;;;;;;;;;0.40;0.40;;;;;4.26;83.85;98779.84;5029665;28;8867;-66
2022/01/31 08:17:31;;;;;;;;;1.80;1.40;;;;;4.26;84.13;98773.78;5030601;28;8852;-67
2022/01/31 08:19:59;;;;;;;;;0.00;0.00;;;;;4.25;84.03;98769.47;5030939;28;8855;-66
2022/01/31 08:22:27;;;;;;;;;0.60;0.60;;;;;4.24;84.61;98770.38;5032076;28;8871;-66
2022/01/31 08:24:54;;;;;;;;;0.20;0.00;;;;;4.24;84.04;98757.22;5029509;28;8836;-66
2022/01/31 08:27:23;;;;;;;;;0.00;0.00;;;;;4.24;84.17;98765.13;5032204;28;8844;-66
2022/01/31 08:29:56;;;;;;;;;0.00;0.00;;;;;4.23;84.16;98768.69;5031716;28;8864;-66
2022/01/31 08:32:34;;;;;;;;;0.00;0.00;;;;;4.22;84.29;98759.13;5030678;28;8888;-66
2022/01/31 08:37:49;;;;;;;;;0.00;0.00;;;;;4.16;84.47;98757.78;5005871;28;8941;-66
2022/01/31 08:40:17;;;;;;;;;1.00;1.00;;;;;4.14;84.01;98751.78;5031456;28;9257;-66
2022/01/31 08:42:46;;;;;;;;;1.00;1.00;;;;;4.13;84.13;98746.63;5032051;28;8848;-66
2022/01/31 08:45:13;;;;;;;;;0.40;0.40;;;;;4.11;84.17;98736.19;5031616;28;8883;-66
2022/01/31 08:47:42;;;;;;;;;2.60;1.00;;;;;4.10;83.83;98742.41;5032002;28;9257;-66
2022/01/31 08:50:10;;;;;;;;;0.20;0.20;;;;;4.11;84.52;98727.47;5031387;28;8849;-66
2022/01/31 08:52:37;;;;;;;;;1.00;1.00;;;;;4.12;84.49;98734.41;5031059;28;8840;-66
2022/01/31 08:55:05;;;;;;;;;1.00;0.60;;;;;4.11;84.64;98724.84;5030774;28;8849;-66
2022/01/31 08:57:33;;;;;;;;;1.00;1.00;;;;;4.11;84.67;98730.94;5029106;28;8836;-66
2022/01/31 09:00:01;;;;;;;;;0.20;0.20;;;;;4.11;84.19;98723.03;5029949;28;8837;-66
2022/01/31 09:02:38;;;;;;;;;1.00;0.40;;;;;4.10;84.98;98715.25;5030404;28;8848;-65
2022/01/31 09:05:06;;;;;;;;;1.80;0.60;;;;;4.11;84.16;98714.31;5032149;28;8934;-67
2022/01/31 09:07:34;;;;;;;;;1.00;0.60;;;;;4.12;83.99;98723.88;5032462;28;9526;-66
2022/01/31 09:10:02;;;;;;;;;0.00;0.00;;;;;4.12;84.16;98721.25;5031546;28;8853;-67
2022/01/31 09:12:30;;;;;;;;;1.00;0.80;;;;;4.12;84.27;98727.34;5032940;28;8878;-66
2022/01/31 09:14:58;;;;;;;;;0.00;0.00;;;;;4.13;84.31;98720.28;5031253;28;9257;-67
2022/01/31 09:17:26;;;;;;;;;1.00;1.00;;;;;4.14;84.01;98714.91;5030753;28;8859;-66
2022/01/31 09:19:54;;;;;;;;;1.00;1.00;;;;;4.16;84.33;98710.38;5031363;28;9557;-67
2022/01/31 09:22:21;;;;;;;;;0.00;0.00;;;;;4.17;84.31;98700.66;5029872;28;9788;-66
2022/01/31 09:24:50;;;;;;;;;2.60;1.00;;;;;4.19;84.28;98694.31;5031705;28;8890;-67
2022/01/31 09:27:19;;;;;;;;;1.40;1.00;;;;;4.19;84.35;98694.31;5030786;28;8841;-66
2022/01/31 09:29:46;;;;;;;;;0.00;0.00;;;;;4.20;84.55;98705.72;5031056;28;9522;-66
2022/01/31 09:32:15;;;;;;;;;0.00;0.00;;;;;4.21;84.35;98694.22;5031088;28;8848;-67
2022/01/31 09:34:43;;;;;;;;;0.60;0.00;;;;;4.21;84.39;98689.81;5031219;28;8847;-66
2022/01/31 09:37:10;;;;;;;;;0.20;0.20;;;;;4.21;84.70;98695.06;5030831;28;9619;-67
2022/01/31 09:39:38;;;;;;;;;0.00;0.00;;;;;4.23;84.49;98687.03;5031874;28;9215;-66
2022/01/31 09:42:09;;;;;;;;;0.80;0.80;;;;;4.24;84.48;98680.81;5032001;28;8856;-67
2022/01/31 09:44:50;;;;;;;;;0.00;0.00;;;;;4.26;84.13;98673.66;5032659;28;9615;-66
2022/01/31 09:47:24;;;;;;;;;1.00;1.00;;;;;4.27;84.38;98680.59;5031862;28;8844;-66
2022/01/31 09:49:51;;;;;;;;;1.00;1.00;;;;;4.28;84.64;98667.28;5031701;28;8854;-66
2022/01/31 09:52:19;;;;;;;;;0.00;0.00;;;;;4.31;84.86;98668.88;5032178;28;8872;-66
2022/01/31 09:54:49;;;;;;;;;1.00;1.00;;;;;4.33;85.08;98664.34;5030415;28;8975;-66
2022/01/31 09:57:16;;;;;;;;;1.00;1.00;;;;;4.36;84.60;98680.78;5031946;28;8925;-66
2022/01/31 09:59:44;;;;;;;;;1.00;1.00;;;;;4.39;84.59;98677.03;5031460;28;8860;-66
2022/01/31 10:02:12;;;;;;;;;0.00;0.00;;;;;4.41;84.81;98677.78;5029987;28;8864;-65
2022/01/31 10:04:40;;;;;;;;;0.80;0.80;;;;;4.43;84.58;98681.13;5031695;28;8848;-66
2022/01/31 10:07:08;;;;;;;;;0.00;0.00;;;;;4.46;84.69;98681.75;5032644;28;8856;-66
2022/01/31 10:09:36;;;;;;;;;0.00;0.00;;;;;4.49;84.35;98691.22;5032556;28;8866;-66
2022/01/31 10:12:06;;;;;;;;;0.60;0.60;;;;;4.51;84.49;98678.75;5032299;28;9498;-66
2022/01/31 10:17:20;;;;;;;;;3.00;1.00;;;;;4.53;84.72;98680.34;5032422;28;8848;-66
2022/01/31 10:19:50;;;;;;;;;1.40;1.40;;;;;4.55;84.77;98694.22;5031399;28;8844;-67
2022/01/31 10:22:17;;;;;;;;;2.60;2.60;;;;;4.57;84.68;98686.22;5030028;28;8856;-66
2022/01/31 10:24:45;;;;;;;;;1.40;1.40;;;;;4.59;84.67;98690.41;5031284;28;8844;-67
2022/01/31 10:27:13;;;;;;;;;1.00;1.00;;;;;4.61;84.80;98690.28;5030797;28;8986;-65
2022/01/31 10:29:41;;;;;;;;;0.20;0.00;;;;;4.63;85.02;98709.47;5027354;28;8874;-66
2022/01/31 10:32:08;;;;;;;;;1.00;1.00;;;;;4.66;85.29;98694.28;5030770;28;8857;-66
2022/01/31 10:34:37;;;;;;;;;1.00;1.00;;;;;4.68;85.25;98705.53;5030017;28;9523;-66
2022/01/31 10:37:05;;;;;;;;;0.40;0.40;;;;;4.71;84.88;98704.47;5030939;28;8852;-66
2022/01/31 10:45:33;;;;;;;;;0.20;0.20;;;;;4.70;85.48;98716.78;5030108;28;8903;-66
2022/01/31 10:51:01;;;;;;;;;1.00;1.00;;;;;4.69;85.67;98720.41;5035026;28;9518;-66
2022/01/31 10:53:29;;;;;;;;;0.00;0.00;;;;;4.69;85.42;98724.81;5035463;28;9541;-66
2022/01/31 10:55:57;;;;;;;;;0.00;0.00;;;;;4.69;85.81;98733.56;5034296;28;8851;-66
2022/01/31 10:58:25;;;;;;;;;0.00;0.00;;;;;4.70;85.99;98726.47;5032375;28;8870;-66
2022/01/31 11:00:53;;;;;;;;;0.00;0.00;;;;;4.73;85.91;98736.81;5033944;28;8868;-66
2022/01/31 11:03:21;;;;;;;;;1.00;1.00;;;;;4.74;85.55;98734.06;5033855;28;8865;-66
2022/01/31 11:05:48;;;;;;;;;0.00;0.00;;;;;4.78;85.62;98718.88;5033205;28;8860;-66
2022/01/31 11:08:16;;;;;;;;;0.00;0.00;;;;;4.80;85.66;98735.41;5033315;28;9506;-67
2022/01/31 11:10:45;;;;;;;;;0.00;0.00;;;;;4.82;86.25;98736.13;5034412;28;8840;-66
2022/01/31 11:13:12;;;;;;;;;0.00;0.00;;;;;4.83;85.83;98753.63;5033600;28;8852;-65
2022/01/31 11:15:40;;;;;;;;;0.00;0.00;;;;;4.84;86.28;98748.25;5033470;28;8844;-66
2022/01/31 11:18:08;;;;;;;;;0.80;0.20;;;;;4.84;85.93;98748.25;5033837;28;8841;-67
2022/01/31 11:20:37;;;;;;;;;0.00;0.00;;;;;4.84;85.92;98756.16;5034308;28;8863;-66
2022/01/31 11:23:05;;;;;;;;;0.20;0.20;;;;;4.85;86.41;98770.16;5032887;28;8914;-66
2022/01/31 11:25:33;;;;;;;;;0.00;0.00;;;;;4.85;86.40;98778.06;5034116;28;8924;-66
2022/01/31 11:28:00;;;;;;;;;1.00;1.00;;;;;4.85;86.25;98794.75;5034393;28;8852;-66
2022/01/31 11:30:28;;;;;;;;;0.00;0.00;;;;;4.87;85.81;98792.00;5033462;28;8856;-66
2022/01/31 11:32:55;;;;;;;;;1.00;1.00;;;;;4.88;86.25;98777.84;5033818;28;8875;-66
2022/01/31 11:35:23;;;;;;;;;0.00;0.00;;;;;4.89;86.64;98819.09;5033063;28;8848;-66
2022/01/31 11:37:51;;;;;;;;;0.40;0.40;;;;;4.91;86.02;98818.03;5034554;28;8836;-66
2022/01/31 11:40:19;;;;;;;;;1.00;1.00;;;;;4.92;86.60;98822.34;5030214;28;8844;-66
2022/01/31 11:42:47;;;;;;;;;0.00;0.00;;;;;4.93;86.44;98833.75;5033670;28;8848;-66
2022/01/31 11:45:14;;;;;;;;;0.00;0.00;;;;;4.96;86.59;98836.13;5033328;28;8840;-66
2022/01/31 11:47:42;;;;;;;;;0.00;0.00;;;;;4.99;86.58;98844.66;5031999;28;9257;-65
2022/01/31 11:50:15;;;;;;;;;0.00;0.00;;;;;5.01;86.48;98855.94;5034366;28;8982;-71
2022/01/31 11:52:43;;;;;;;;;1.00;0.00;;;;;5.10;86.55;98849.97;5030868;28;8856;-65
2022/01/31 11:55:12;;;;;;;;;0.00;0.00;;;;;5.19;86.17;98856.38;5032076;28;9196;-65
2022/01/31 11:57:41;;;;;;;;;0.00;0.00;;;;;5.27;85.99;98873.31;5031069;28;8974;-65
2022/01/31 12:00:09;;;;;;;;;0.00;0.00;;;;;5.40;85.66;98865.31;5031335;28;8869;-65
2022/01/31 12:02:37;;;;;;;;;0.00;0.00;;;;;5.46;85.60;98870.94;5030602;28;8844;-65
2022/01/31 12:05:05;;;;;;;;;0.00;0.00;;;;;5.52;85.86;98880.19;5029981;28;9367;-65
2022/01/31 12:07:36;;;;;;;;;0.00;0.00;;;;;5.53;85.72;98871.34;5030260;28;9293;-65
2022/01/31 12:10:03;;;;;;;;;1.00;0.00;;;;;5.55;85.54;98880.81;5031312;28;8845;-64